sensor_id;sensor_type;location;lat;lon;timestamp;pressure;altitude;pressure_sealevel;temperature;humidity
73645;BME280;61940;42.136;24.534;2022-07-29T00:00:25;99529.23;;;27.81;43.38
73645;BME280;61940;42.136;24.534;2022-07-29T00:02:51;99528.67;;;27.66;43.79
73645;BME280;61940;42.136;24.534;2022-07-29T00:05:17;99531.69;;;27.70;43.62
73645;BME280;61940;42.136;24.534;2022-07-29T00:07:43;99530.45;;;27.77;43.42
73645;BME280;61940;42.136;24.534;2022-07-29T00:10:09;99535.49;;;27.74;43.43
73645;BME280;61940;42.136;24.534;2022-07-29T00:12:35;99532.86;;;27.76;43.27
73645;BME280;61940;42.136;24.534;2022-07-29T00:15:02;99531.67;;;27.74;43.32
73645;BME280;61940;42.136;24.534;2022-07-29T00:17:28;99536.51;;;27.70;43.36
73645;BME280;61940;42.136;24.534;2022-07-29T00:19:54;99529.10;;;27.64;43.55
73645;BME280;61940;42.136;24.534;2022-07-29T00:22:20;99533.12;;;27.65;43.74
73645;BME280;61940;42.136;24.534;2022-07-29T00:24:47;99534.71;;;27.66;43.66
73645;BME280;61940;42.136;24.534;2022-07-29T00:27:13;99537.95;;;27.65;43.87
73645;BME280;61940;42.136;24.534;2022-07-29T00:29:39;99534.13;;;27.63;44.06
73645;BME280;61940;42.136;24.534;2022-07-29T00:32:05;99535.36;;;27.62;44.07
73645;BME280;61940;42.136;24.534;2022-07-29T00:34:32;99534.13;;;27.59;44.18
73645;BME280;61940;42.136;24.534;2022-07-29T00:37:03;99526.91;;;27.57;44.26
73645;BME280;61940;42.136;24.534;2022-07-29T00:39:29;99539.80;;;27.54;44.47
73645;BME280;61940;42.136;24.534;2022-07-29T00:41:56;99543.62;;;27.54;44.38
73645;BME280;61940;42.136;24.534;2022-07-29T00:44:22;99545.84;;;27.51;44.46
73645;BME280;61940;42.136;24.534;2022-07-29T00:46:48;99544.44;;;27.47;44.67
73645;BME280;61940;42.136;24.534;2022-07-29T00:49:14;99543.25;;;27.34;45.16
73645;BME280;61940;42.136;24.534;2022-07-29T00:51:40;99544.87;;;27.23;45.55
73645;BME280;61940;42.136;24.534;2022-07-29T00:54:07;99543.45;;;27.23;45.65
73645;BME280;61940;42.136;24.534;2022-07-29T00:56:33;99545.88;;;27.24;45.54
73645;BME280;61940;42.136;24.534;2022-07-29T00:58:59;99542.66;;;27.28;45.53
73645;BME280;61940;42.136;24.534;2022-07-29T01:01:26;99535.02;;;27.26;45.65
73645;BME280;61940;42.136;24.534;2022-07-29T01:03:52;99541.45;;;27.23;45.64
73645;BME280;61940;42.136;24.534;2022-07-29T01:06:18;99547.91;;;27.06;46.29
73645;BME280;61940;42.136;24.534;2022-07-29T01:08:45;99542.85;;;26.30;47.79
73645;BME280;61940;42.136;24.534;2022-07-29T01:11:11;99545.30;;;26.54;47.40
73645;BME280;61940;42.136;24.534;2022-07-29T01:13:37;99553.73;;;26.74;46.92
73645;BME280;61940;42.136;24.534;2022-07-29T01:16:04;99549.74;;;26.87;46.52
73645;BME280;61940;42.136;24.534;2022-07-29T01:18:31;99553.36;;;26.91;46.51
73645;BME280;61940;42.136;24.534;2022-07-29T01:21:07;99544.33;;;26.95;46.34
73645;BME280;61940;42.136;24.534;2022-07-29T01:26:49;99544.12;;;26.98;46.23
73645;BME280;61940;42.136;24.534;2022-07-29T01:31:33;99549.13;;;26.90;46.22
73645;BME280;61940;42.136;24.534;2022-07-29T01:33:58;99544.73;;;26.88;46.23
73645;BME280;61940;42.136;24.534;2022-07-29T01:36:30;99542.33;;;26.85;46.21
73645;BME280;61940;42.136;24.534;2022-07-29T01:38:58;99543.31;;;26.86;46.16
73645;BME280;61940;42.136;24.534;2022-07-29T01:41:20;99542.91;;;26.83;46.25
73645;BME280;61940;42.136;24.534;2022-07-29T01:43:49;99542.89;;;26.77;46.31
73645;BME280;61940;42.136;24.534;2022-07-29T01:46:15;99547.92;;;26.74;46.32
73645;BME280;61940;42.136;24.534;2022-07-29T01:48:42;99540.47;;;26.76;46.20
73645;BME280;61940;42.136;24.534;2022-07-29T01:51:08;99536.87;;;26.74;46.17
73645;BME280;61940;42.136;24.534;2022-07-29T01:53:36;99535.67;;;26.71;46.17
73645;BME280;61940;42.136;24.534;2022-07-29T01:56:02;99537.67;;;26.67;46.27
73645;BME280;61940;42.136;24.534;2022-07-29T01:58:29;99541.09;;;26.68;46.14
73645;BME280;61940;42.136;24.534;2022-07-29T02:00:57;99540.69;;;26.68;46.15
73645;BME280;61940;42.136;24.534;2022-07-29T02:03:25;99538.05;;;26.66;46.13
73645;BME280;61940;42.136;24.534;2022-07-29T02:05:52;99537.47;;;26.61;46.21
73645;BME280;61940;42.136;24.534;2022-07-29T02:08:22;99537.06;;;26.57;46.15
73645;BME280;61940;42.136;24.534;2022-07-29T02:10:52;99533.85;;;26.57;46.02
73645;BME280;61940;42.136;24.534;2022-07-29T02:13:18;99528.63;;;26.53;46.01
73645;BME280;61940;42.136;24.534;2022-07-29T02:15:45;99531.23;;;26.56;45.82
73645;BME280;61940;42.136;24.534;2022-07-29T02:18:14;99530.23;;;26.44;46.04
73645;BME280;61940;42.136;24.534;2022-07-29T02:20:39;99533.23;;;26.43;46.04
73645;BME280;61940;42.136;24.534;2022-07-29T02:23:11;99533.84;;;26.41;46.04
73645;BME280;61940;42.136;24.534;2022-07-29T02:25:40;99532.01;;;26.26;46.50
73645;BME280;61940;42.136;24.534;2022-07-29T02:28:07;99535.22;;;26.27;46.53
73645;BME280;61940;42.136;24.534;2022-07-29T02:30:35;99522.58;;;26.27;46.52
73645;BME280;61940;42.136;24.534;2022-07-29T02:33:01;99525.58;;;26.26;46.63
73645;BME280;61940;42.136;24.534;2022-07-29T02:35:27;99520.37;;;26.21;47.16
73645;BME280;61940;42.136;24.534;2022-07-29T02:37:53;99515.16;;;26.18;47.30
73645;BME280;61940;42.136;24.534;2022-07-29T02:40:25;99519.58;;;26.19;47.37
73645;BME280;61940;42.136;24.534;2022-07-29T02:42:51;99519.56;;;26.20;47.26
73645;BME280;61940;42.136;24.534;2022-07-29T02:45:17;99516.55;;;26.23;47.32
73645;BME280;61940;42.136;24.534;2022-07-29T02:47:44;99519.16;;;26.25;47.15
73645;BME280;61940;42.136;24.534;2022-07-29T02:50:12;99516.95;;;26.23;47.32
73645;BME280;61940;42.136;24.534;2022-07-29T02:52:41;99517.77;;;26.27;47.21
73645;BME280;61940;42.136;24.534;2022-07-29T02:55:13;99517.98;;;26.25;47.40
73645;BME280;61940;42.136;24.534;2022-07-29T02:57:40;99513.16;;;26.18;47.45
73645;BME280;61940;42.136;24.534;2022-07-29T03:00:05;99514.33;;;26.19;47.44
73645;BME280;61940;42.136;24.534;2022-07-29T03:02:33;99514.16;;;26.21;47.23
73645;BME280;61940;42.136;24.534;2022-07-29T03:04:57;99515.95;;;26.23;47.09
73645;BME280;61940;42.136;24.534;2022-07-29T03:07:23;99526.39;;;26.23;47.02
73645;BME280;61940;42.136;24.534;2022-07-29T03:09:49;99522.36;;;26.22;46.91
73645;BME280;61940;42.136;24.534;2022-07-29T03:12:15;99528.78;;;26.19;46.92
73645;BME280;61940;42.136;24.534;2022-07-29T03:14:42;99540.82;;;26.20;46.85
73645;BME280;61940;42.136;24.534;2022-07-29T03:17:08;99532.41;;;26.18;46.89
73645;BME280;61940;42.136;24.534;2022-07-29T03:19:34;99537.84;;;26.19;46.86
73645;BME280;61940;42.136;24.534;2022-07-29T03:22:01;99542.43;;;26.17;47.11
73645;BME280;61940;42.136;24.534;2022-07-29T03:24:30;99544.86;;;26.19;46.99
73645;BME280;61940;42.136;24.534;2022-07-29T03:26:55;99545.05;;;26.23;46.97
73645;BME280;61940;42.136;24.534;2022-07-29T03:29:21;99547.86;;;26.21;47.31
73645;BME280;61940;42.136;24.534;2022-07-29T03:31:47;99550.66;;;26.23;47.09
73645;BME280;61940;42.136;24.534;2022-07-29T03:34:13;99549.88;;;26.33;46.89
73645;BME280;61940;42.136;24.534;2022-07-29T03:36:40;99551.13;;;26.55;46.28
73645;BME280;61940;42.136;24.534;2022-07-29T03:39:06;99554.34;;;26.71;45.87
73645;BME280;61940;42.136;24.534;2022-07-29T03:41:33;99549.53;;;26.93;45.32
73645;BME280;61940;42.136;24.534;2022-07-29T03:43:59;99549.91;;;27.16;44.68
73645;BME280;61940;42.136;24.534;2022-07-29T03:46:26;99549.45;;;27.35;44.16
73645;BME280;61940;42.136;24.534;2022-07-29T03:48:52;99548.63;;;27.53;43.68
73645;BME280;61940;42.136;24.534;2022-07-29T03:51:18;99555.81;;;27.70;43.16
73645;BME280;61940;42.136;24.534;2022-07-29T03:53:44;99557.94;;;27.89;42.60
73645;BME280;61940;42.136;24.534;2022-07-29T03:56:10;99563.92;;;28.07;42.16
73645;BME280;61940;42.136;24.534;2022-07-29T03:58:37;99560.38;;;28.31;41.57
73645;BME280;61940;42.136;24.534;2022-07-29T04:01:03;99561.47;;;28.48;41.15
73645;BME280;61940;42.136;24.534;2022-07-29T04:03:29;99564.77;;;28.68;40.67
73645;BME280;61940;42.136;24.534;2022-07-29T04:05:58;99567.89;;;28.81;40.36
73645;BME280;61940;42.136;24.534;2022-07-29T04:08:23;99566.13;;;28.98;40.02
73645;BME280;61940;42.136;24.534;2022-07-29T04:10:50;99571.14;;;29.00;40.06
73645;BME280;61940;42.136;24.534;2022-07-29T04:13:16;99567.92;;;29.25;39.55
73645;BME280;61940;42.136;24.534;2022-07-29T04:15:42;99574.57;;;29.44;39.32
73645;BME280;61940;42.136;24.534;2022-07-29T04:18:08;99579.66;;;29.58;39.24
73645;BME280;61940;42.136;24.534;2022-07-29T04:20:35;99578.02;;;29.77;38.66
73645;BME280;61940;42.136;24.534;2022-07-29T04:23:01;99569.97;;;29.93;38.42
73645;BME280;61940;42.136;24.534;2022-07-29T04:25:27;99569.69;;;29.85;38.55
73645;BME280;61940;42.136;24.534;2022-07-29T04:27:53;99571.45;;;30.02;38.21
73645;BME280;61940;42.136;24.534;2022-07-29T04:30:25;99565.92;;;30.26;37.73
73645;BME280;61940;42.136;24.534;2022-07-29T04:32:51;99564.56;;;30.35;37.44
73645;BME280;61940;42.136;24.534;2022-07-29T04:35:18;99569.56;;;30.53;37.06
73645;BME280;61940;42.136;24.534;2022-07-29T04:37:44;99572.41;;;30.78;36.61
73645;BME280;61940;42.136;24.534;2022-07-29T04:40:10;99562.39;;;30.98;36.30
73645;BME280;61940;42.136;24.534;2022-07-29T04:42:37;99565.56;;;31.35;35.50
73645;BME280;61940;42.136;24.534;2022-07-29T04:45:03;99564.20;;;31.65;35.03
73645;BME280;61940;42.136;24.534;2022-07-29T04:47:29;99566.58;;;31.86;34.61
73645;BME280;61940;42.136;24.534;2022-07-29T04:49:56;99562.83;;;32.12;34.14
73645;BME280;61940;42.136;24.534;2022-07-29T04:52:23;99565.96;;;32.16;34.15
73645;BME280;61940;42.136;24.534;2022-07-29T04:54:49;99568.67;;;32.39;33.73
73645;BME280;61940;42.136;24.534;2022-07-29T04:57:15;99561.56;;;32.83;32.90
73645;BME280;61940;42.136;24.534;2022-07-29T04:59:41;99561.73;;;33.00;32.80
73645;BME280;61940;42.136;24.534;2022-07-29T05:02:08;99570.82;;;33.11;32.61
73645;BME280;61940;42.136;24.534;2022-07-29T05:04:34;99565.76;;;33.19;32.66
73645;BME280;61940;42.136;24.534;2022-07-29T05:07:00;99567.51;;;33.44;32.20
73645;BME280;61940;42.136;24.534;2022-07-29T05:09:27;99567.35;;;33.43;32.42
73645;BME280;61940;42.136;24.534;2022-07-29T05:11:53;99565.48;;;33.58;32.21
73645;BME280;61940;42.136;24.534;2022-07-29T05:14:19;99577.03;;;34.09;31.26
73645;BME280;61940;42.136;24.534;2022-07-29T05:16:46;99579.96;;;34.20;31.18
73645;BME280;61940;42.136;24.534;2022-07-29T05:19:12;99578.07;;;34.48;30.64
73645;BME280;61940;42.136;24.534;2022-07-29T05:21:38;99570.05;;;34.51;30.98
73645;BME280;61940;42.136;24.534;2022-07-29T05:24:04;99571.59;;;34.67;30.82
73645;BME280;61940;42.136;24.534;2022-07-29T05:26:31;99574.11;;;34.71;30.67
73645;BME280;61940;42.136;24.534;2022-07-29T05:28:57;99572.53;;;34.94;30.58
73645;BME280;61940;42.136;24.534;2022-07-29T05:31:23;99576.79;;;35.00;30.26
73645;BME280;61940;42.136;24.534;2022-07-29T05:33:50;99578.98;;;35.49;29.64
73645;BME280;61940;42.136;24.534;2022-07-29T05:36:16;99573.19;;;35.74;29.12
73645;BME280;61940;42.136;24.534;2022-07-29T05:38:42;99572.94;;;35.97;28.78
73645;BME280;61940;42.136;24.534;2022-07-29T05:41:08;99571.92;;;35.64;29.02
73645;BME280;61940;42.136;24.534;2022-07-29T05:43:34;99584.45;;;34.59;30.61
73645;BME280;61940;42.136;24.534;2022-07-29T05:46:01;99589.25;;;33.36;32.72
73645;BME280;61940;42.136;24.534;2022-07-29T05:48:27;99589.91;;;32.23;34.67
73645;BME280;61940;42.136;24.534;2022-07-29T05:50:53;99592.06;;;31.58;35.97
73645;BME280;61940;42.136;24.534;2022-07-29T05:53:19;99601.02;;;30.57;38.02
73645;BME280;61940;42.136;24.534;2022-07-29T05:55:46;99601.41;;;30.44;38.57
73645;BME280;61940;42.136;24.534;2022-07-29T05:58:12;99598.73;;;30.16;39.20
73645;BME280;61940;42.136;24.534;2022-07-29T06:00:39;99596.06;;;30.51;38.29
73645;BME280;61940;42.136;24.534;2022-07-29T06:03:05;99602.11;;;31.92;35.63
73645;BME280;61940;42.136;24.534;2022-07-29T06:05:31;99590.23;;;33.13;32.99
73645;BME280;61940;42.136;24.534;2022-07-29T06:07:57;99599.53;;;34.18;31.29
73645;BME280;61940;42.136;24.534;2022-07-29T06:10:23;99601.50;;;34.79;30.18
73645;BME280;61940;42.136;24.534;2022-07-29T06:12:50;99600.33;;;35.55;28.81
73645;BME280;61940;42.136;24.534;2022-07-29T06:15:16;99597.08;;;36.27;27.82
73645;BME280;61940;42.136;24.534;2022-07-29T06:17:42;99598.03;;;36.65;27.02
73645;BME280;61940;42.136;24.534;2022-07-29T06:20:09;99601.00;;;36.73;26.89
73645;BME280;61940;42.136;24.534;2022-07-29T06:22:35;99595.09;;;36.62;26.72
73645;BME280;61940;42.136;24.534;2022-07-29T06:25:02;99593.05;;;36.92;26.00
73645;BME280;61940;42.136;24.534;2022-07-29T06:27:28;99591.38;;;36.97;26.03
73645;BME280;61940;42.136;24.534;2022-07-29T06:29:55;99596.92;;;37.50;25.13
73645;BME280;61940;42.136;24.534;2022-07-29T06:32:21;99596.16;;;37.63;25.02
73645;BME280;61940;42.136;24.534;2022-07-29T06:34:48;99590.80;;;37.77;24.28
73645;BME280;61940;42.136;24.534;2022-07-29T06:37:14;99595.19;;;37.89;24.42
73645;BME280;61940;42.136;24.534;2022-07-29T06:39:40;99596.13;;;38.13;24.08
73645;BME280;61940;42.136;24.534;2022-07-29T06:42:06;99599.07;;;37.57;24.84
73645;BME280;61940;42.136;24.534;2022-07-29T06:44:33;99593.17;;;37.42;24.69
73645;BME280;61940;42.136;24.534;2022-07-29T06:46:59;99595.99;;;38.03;24.26
73645;BME280;61940;42.136;24.534;2022-07-29T06:49:25;99593.28;;;38.34;23.99
73645;BME280;61940;42.136;24.534;2022-07-29T06:51:52;99594.81;;;38.28;24.17
73645;BME280;61940;42.136;24.534;2022-07-29T06:54:18;99591.31;;;38.28;24.00
73645;BME280;61940;42.136;24.534;2022-07-29T06:56:44;99594.86;;;38.05;24.64
73645;BME280;61940;42.136;24.534;2022-07-29T06:59:11;99598.69;;;38.46;24.33
73645;BME280;61940;42.136;24.534;2022-07-29T07:01:38;99593.94;;;38.38;24.29
73645;BME280;61940;42.136;24.534;2022-07-29T07:04:04;99589.21;;;38.12;24.79
73645;BME280;61940;42.136;24.534;2022-07-29T07:06:30;99585.95;;;37.80;25.09
73645;BME280;61940;42.136;24.534;2022-07-29T07:08:57;99595.43;;;38.45;24.35
73645;BME280;61940;42.136;24.534;2022-07-29T07:11:23;99586.97;;;38.93;23.80
73645;BME280;61940;42.136;24.534;2022-07-29T07:13:49;99587.75;;;39.33;23.25
73645;BME280;61940;42.136;24.534;2022-07-29T07:16:15;99590.58;;;39.02;23.78
73645;BME280;61940;42.136;24.534;2022-07-29T07:18:42;99588.36;;;39.37;23.54
73645;BME280;61940;42.136;24.534;2022-07-29T07:21:08;99593.44;;;39.74;22.88
73645;BME280;61940;42.136;24.534;2022-07-29T07:23:34;99584.76;;;39.32;23.37
73645;BME280;61940;42.136;24.534;2022-07-29T07:26:00;99587.25;;;39.40;23.42
73645;BME280;61940;42.136;24.534;2022-07-29T07:28:26;99588.38;;;39.95;22.72
73645;BME280;61940;42.136;24.534;2022-07-29T07:30:53;99588.16;;;40.03;22.69
73645;BME280;61940;42.136;24.534;2022-07-29T07:33:19;99588.48;;;39.86;22.72
73645;BME280;61940;42.136;24.534;2022-07-29T07:35:45;99585.28;;;40.03;22.53
73645;BME280;61940;42.136;24.534;2022-07-29T07:38:11;99580.67;;;40.08;22.49
73645;BME280;61940;42.136;24.534;2022-07-29T07:40:38;99576.98;;;40.34;22.22
73645;BME280;61940;42.136;24.534;2022-07-29T07:43:04;99577.97;;;40.24;22.08
73645;BME280;61940;42.136;24.534;2022-07-29T07:45:30;99582.44;;;39.91;22.64
73645;BME280;61940;42.136;24.534;2022-07-29T07:47:56;99574.52;;;40.13;22.28
73645;BME280;61940;42.136;24.534;2022-07-29T07:50:22;99577.47;;;39.77;22.86
73645;BME280;61940;42.136;24.534;2022-07-29T07:52:49;99577.51;;;39.42;23.40
73645;BME280;61940;42.136;24.534;2022-07-29T07:55:16;99579.47;;;39.55;22.99
73645;BME280;61940;42.136;24.534;2022-07-29T07:57:42;99581.03;;;39.72;22.95
73645;BME280;61940;42.136;24.534;2022-07-29T08:00:08;99570.36;;;39.37;23.42
73645;BME280;61940;42.136;24.534;2022-07-29T08:02:35;99570.80;;;39.76;23.35
73645;BME280;61940;42.136;24.534;2022-07-29T08:05:01;99565.96;;;40.23;22.86
73645;BME280;61940;42.136;24.534;2022-07-29T08:07:27;99565.72;;;40.04;22.67
73645;BME280;61940;42.136;24.534;2022-07-29T08:09:53;99567.19;;;39.11;23.36
73645;BME280;61940;42.136;24.534;2022-07-29T08:12:20;99564.22;;;38.56;23.64
73645;BME280;61940;42.136;24.534;2022-07-29T08:14:46;99565.20;;;38.44;24.44
73645;BME280;61940;42.136;24.534;2022-07-29T08:17:12;99565.30;;;39.25;23.49
73645;BME280;61940;42.136;24.534;2022-07-29T08:19:38;99569.11;;;39.69;22.64
73645;BME280;61940;42.136;24.534;2022-07-29T08:22:05;99567.91;;;40.02;22.16
73645;BME280;61940;42.136;24.534;2022-07-29T08:24:31;99558.60;;;38.16;23.26
73645;BME280;61940;42.136;24.534;2022-07-29T08:27:03;99556.39;;;37.83;24.77
73645;BME280;61940;42.136;24.534;2022-07-29T08:29:29;99554.31;;;38.06;24.34
73645;BME280;61940;42.136;24.534;2022-07-29T08:31:57;99550.70;;;38.52;23.75
73645;BME280;61940;42.136;24.534;2022-07-29T08:34:23;99549.09;;;38.72;22.96
73645;BME280;61940;42.136;24.534;2022-07-29T08:36:49;99549.34;;;38.55;23.18
73645;BME280;61940;42.136;24.534;2022-07-29T08:39:15;99543.04;;;38.91;22.28
73645;BME280;61940;42.136;24.534;2022-07-29T08:41:42;99544.42;;;37.64;23.07
73645;BME280;61940;42.136;24.534;2022-07-29T08:44:08;99544.72;;;36.91;23.72
73645;BME280;61940;42.136;24.534;2022-07-29T08:46:37;99538.00;;;37.80;23.83
73645;BME280;61940;42.136;24.534;2022-07-29T08:49:01;99539.89;;;37.78;23.94
73645;BME280;61940;42.136;24.534;2022-07-29T08:51:27;99535.94;;;38.15;23.42
73645;BME280;61940;42.136;24.534;2022-07-29T08:53:53;99539.50;;;38.63;22.92
73645;BME280;61940;42.136;24.534;2022-07-29T08:56:20;99543.78;;;38.80;22.85
73645;BME280;61940;42.136;24.534;2022-07-29T08:58:46;99535.78;;;39.60;21.38
73645;BME280;61940;42.136;24.534;2022-07-29T09:01:16;99540.08;;;39.41;20.45
73645;BME280;61940;42.136;24.534;2022-07-29T09:03:41;99528.37;;;38.49;20.93
73645;BME280;61940;42.136;24.534;2022-07-29T09:06:08;99519.34;;;38.16;22.02
73645;BME280;61940;42.136;24.534;2022-07-29T09:08:34;99515.33;;;38.60;21.92
73645;BME280;61940;42.136;24.534;2022-07-29T09:11:01;99519.48;;;39.27;21.17
73645;BME280;61940;42.136;24.534;2022-07-29T09:13:26;99504.33;;;40.06;20.05
73645;BME280;61940;42.136;24.534;2022-07-29T09:15:53;99509.27;;;39.65;20.04
73645;BME280;61940;42.136;24.534;2022-07-29T09:20:51;99503.31;;;39.15;20.57
73645;BME280;61940;42.136;24.534;2022-07-29T09:23:23;99504.36;;;39.87;20.71
73645;BME280;61940;42.136;24.534;2022-07-29T09:25:49;99495.63;;;40.16;20.02
73645;BME280;61940;42.136;24.534;2022-07-29T09:28:16;99494.03;;;40.54;19.22
73645;BME280;61940;42.136;24.534;2022-07-29T09:30:51;99493.58;;;39.17;17.77
73645;BME280;61940;42.136;24.534;2022-07-29T09:33:18;99492.85;;;38.14;19.15
73645;BME280;61940;42.136;24.534;2022-07-29T09:35:45;99486.67;;;37.67;19.81
73645;BME280;61940;42.136;24.534;2022-07-29T09:38:11;99484.40;;;37.32;19.36
73645;BME280;61940;42.136;24.534;2022-07-29T09:40:37;99485.25;;;37.67;18.79
73645;BME280;61940;42.136;24.534;2022-07-29T09:43:11;99483.27;;;37.07;18.09
73645;BME280;61940;42.136;24.534;2022-07-29T09:45:36;99480.17;;;36.65;18.66
73645;BME280;61940;42.136;24.534;2022-07-29T09:50:36;99476.33;;;36.14;20.64
73645;BME280;61940;42.136;24.534;2022-07-29T09:53:02;99477.19;;;35.71;20.89
73645;BME280;61940;42.136;24.534;2022-07-29T09:55:29;99478.47;;;35.42;21.35
73645;BME280;61940;42.136;24.534;2022-07-29T09:57:55;99471.92;;;35.03;21.84
73645;BME280;61940;42.136;24.534;2022-07-29T10:00:21;99474.92;;;34.99;21.79
73645;BME280;61940;42.136;24.534;2022-07-29T10:02:48;99474.38;;;34.43;21.69
73645;BME280;61940;42.136;24.534;2022-07-29T10:05:18;99468.75;;;33.83;22.74
73645;BME280;61940;42.136;24.534;2022-07-29T10:07:44;99474.28;;;33.47;23.60
73645;BME280;61940;42.136;24.534;2022-07-29T10:10:09;99470.72;;;33.36;24.41
73645;BME280;61940;42.136;24.534;2022-07-29T10:12:40;99473.41;;;33.35;22.83
73645;BME280;61940;42.136;24.534;2022-07-29T10:15:02;99475.28;;;32.73;22.83
73645;BME280;61940;42.136;24.534;2022-07-29T10:17:28;99480.33;;;32.41;23.55
73645;BME280;61940;42.136;24.534;2022-07-29T10:19:54;99471.07;;;32.38;23.36
73645;BME280;61940;42.136;24.534;2022-07-29T10:22:20;99465.73;;;32.24;23.39
73645;BME280;61940;42.136;24.534;2022-07-29T10:24:47;99464.84;;;32.11;23.50
73645;BME280;61940;42.136;24.534;2022-07-29T10:27:13;99461.25;;;32.17;24.98
73645;BME280;61940;42.136;24.534;2022-07-29T10:29:39;99454.31;;;32.28;24.75
73645;BME280;61940;42.136;24.534;2022-07-29T10:35:01;99449.86;;;32.61;25.05
73645;BME280;61940;42.136;24.534;2022-07-29T10:37:35;99445.67;;;32.82;23.02
73645;BME280;61940;42.136;24.534;2022-07-29T10:39:54;99449.92;;;32.82;22.29
73645;BME280;61940;42.136;24.534;2022-07-29T10:42:19;99445.47;;;32.56;22.78
73645;BME280;61940;42.136;24.534;2022-07-29T10:44:44;99439.91;;;32.37;22.83
73645;BME280;61940;42.136;24.534;2022-07-29T10:49:53;99439.86;;;32.55;22.97
73645;BME280;61940;42.136;24.534;2022-07-29T10:52:09;99428.86;;;32.73;24.61
73645;BME280;61940;42.136;24.534;2022-07-29T10:54:43;99424.10;;;32.84;23.88
73645;BME280;61940;42.136;24.534;2022-07-29T10:57:14;99419.02;;;32.85;23.92
73645;BME280;61940;42.136;24.534;2022-07-29T10:59:41;99421.87;;;32.92;23.08
73645;BME280;61940;42.136;24.534;2022-07-29T11:05:04;99413.16;;;32.99;23.91
73645;BME280;61940;42.136;24.534;2022-07-29T11:07:30;99404.55;;;32.88;24.00
73645;BME280;61940;42.136;24.534;2022-07-29T11:12:49;99412.19;;;32.97;22.99
73645;BME280;61940;42.136;24.534;2022-07-29T11:15:16;99398.79;;;32.98;23.53
73645;BME280;61940;42.136;24.534;2022-07-29T11:22:48;99400.91;;;32.87;22.52
73645;BME280;61940;42.136;24.534;2022-07-29T11:25:14;99401.70;;;32.88;22.30
73645;BME280;61940;42.136;24.534;2022-07-29T11:27:40;99395.93;;;32.92;22.69
73645;BME280;61940;42.136;24.534;2022-07-29T11:30:07;99388.23;;;32.98;22.49
73645;BME280;61940;42.136;24.534;2022-07-29T11:32:36;99385.91;;;32.87;23.22
73645;BME280;61940;42.136;24.534;2022-07-29T11:35:10;99388.86;;;32.98;23.20
73645;BME280;61940;42.136;24.534;2022-07-29T11:37:37;99384.90;;;33.02;23.47
73645;BME280;61940;42.136;24.534;2022-07-29T11:40:18;99378.14;;;33.04;22.80
73645;BME280;61940;42.136;24.534;2022-07-29T11:42:45;99373.42;;;32.99;23.35
73645;BME280;61940;42.136;24.534;2022-07-29T11:45:12;99367.34;;;33.13;23.23
73645;BME280;61940;42.136;24.534;2022-07-29T11:47:38;99370.56;;;33.21;23.48
73645;BME280;61940;42.136;24.534;2022-07-29T11:50:05;99365.91;;;33.27;23.49
73645;BME280;61940;42.136;24.534;2022-07-29T11:52:34;99355.83;;;33.39;23.36
73645;BME280;61940;42.136;24.534;2022-07-29T11:55:01;99358.89;;;33.38;23.24
73645;BME280;61940;42.136;24.534;2022-07-29T11:57:27;99354.41;;;33.39;23.66
73645;BME280;61940;42.136;24.534;2022-07-29T11:59:53;99356.69;;;33.57;24.18
73645;BME280;61940;42.136;24.534;2022-07-29T12:02:20;99357.59;;;33.54;24.54
73645;BME280;61940;42.136;24.534;2022-07-29T12:04:51;99355.44;;;33.51;24.27
73645;BME280;61940;42.136;24.534;2022-07-29T12:07:17;99354.71;;;33.49;24.53
73645;BME280;61940;42.136;24.534;2022-07-29T12:12:16;99359.30;;;33.66;24.17
73645;BME280;61940;42.136;24.534;2022-07-29T12:14:42;99353.73;;;33.48;24.61
73645;BME280;61940;42.136;24.534;2022-07-29T12:17:08;99354.42;;;33.52;25.08
73645;BME280;61940;42.136;24.534;2022-07-29T12:19:41;99346.77;;;33.36;24.92
73645;BME280;61940;42.136;24.534;2022-07-29T12:22:00;99338.91;;;33.42;24.91
73645;BME280;61940;42.136;24.534;2022-07-29T12:24:27;99342.22;;;33.59;24.54
73645;BME280;61940;42.136;24.534;2022-07-29T12:26:54;99339.53;;;33.54;24.51
73645;BME280;61940;42.136;24.534;2022-07-29T12:29:19;99338.09;;;33.62;24.60
73645;BME280;61940;42.136;24.534;2022-07-29T12:31:45;99333.84;;;33.60;24.80
73645;BME280;61940;42.136;24.534;2022-07-29T12:34:12;99343.59;;;33.61;25.38
73645;BME280;61940;42.136;24.534;2022-07-29T12:36:38;99338.58;;;33.59;25.18
73645;BME280;61940;42.136;24.534;2022-07-29T12:39:04;99333.43;;;33.68;25.21
73645;BME280;61940;42.136;24.534;2022-07-29T12:41:30;99329.65;;;33.90;25.14
73645;BME280;61940;42.136;24.534;2022-07-29T12:43:57;99318.15;;;34.00;25.02
73645;BME280;61940;42.136;24.534;2022-07-29T12:46:24;99321.33;;;34.21;24.39
73645;BME280;61940;42.136;24.534;2022-07-29T12:48:51;99318.94;;;34.26;24.04
73645;BME280;61940;42.136;24.534;2022-07-29T12:56:24;99303.34;;;34.24;24.22
73645;BME280;61940;42.136;24.534;2022-07-29T12:58:50;99295.52;;;34.22;25.26
73645;BME280;61940;42.136;24.534;2022-07-29T13:01:17;99300.20;;;34.33;24.12
73645;BME280;61940;42.136;24.534;2022-07-29T13:03:45;99293.91;;;34.38;24.93
73645;BME280;61940;42.136;24.534;2022-07-29T13:08:57;99292.30;;;34.32;23.65
73645;BME280;61940;42.136;24.534;2022-07-29T13:11:09;99288.10;;;34.24;23.54
73645;BME280;61940;42.136;24.534;2022-07-29T13:13:42;99292.55;;;34.25;24.36
73645;BME280;61940;42.136;24.534;2022-07-29T13:16:06;99282.02;;;34.24;23.79
73645;BME280;61940;42.136;24.534;2022-07-29T13:18:32;99284.84;;;34.19;24.08
73645;BME280;61940;42.136;24.534;2022-07-29T13:21:09;99277.77;;;34.18;24.24
73645;BME280;61940;42.136;24.534;2022-07-29T13:23:25;99276.87;;;34.14;24.79